sensor_id;sensor_type;location;lat;lon;timestamp;pressure;altitude;pressure_sealevel;temperature;humidity
163;BME280;3946;48.958;8.284;2023-10-08T00:02:42;101349.25;;;13.84;82.25
163;BME280;3946;48.958;8.284;2023-10-08T00:05:27;101349.72;;;13.91;81.57
163;BME280;3946;48.958;8.284;2023-10-08T00:08:12;101348.69;;;13.93;81.10
163;BME280;3946;48.958;8.284;2023-10-08T00:11:00;101350.84;;;13.87;81.47
163;BME280;3946;48.958;8.284;2023-10-08T00:13:49;101355.78;;;13.91;81.46
163;BME280;3946;48.958;8.284;2023-10-08T00:16:34;101350.28;;;13.96;81.43
163;BME280;3946;48.958;8.284;2023-10-08T00:19:23;101352.06;;;13.95;80.77
163;BME280;3946;48.958;8.284;2023-10-08T00:22:09;101340.56;;;13.98;80.59
163;BME280;3946;48.958;8.284;2023-10-08T00:24:54;101337.44;;;13.93;80.89
163;BME280;3946;48.958;8.284;2023-10-08T00:27:41;101332.75;;;13.98;80.41
163;BME280;3946;48.958;8.284;2023-10-08T00:30:26;101339.66;;;13.99;80.40
163;BME280;3946;48.958;8.284;2023-10-08T00:33:11;101341.97;;;14.04;80.12
163;BME280;3946;48.958;8.284;2023-10-08T00:35:58;101328.84;;;14.05;79.47
163;BME280;3946;48.958;8.284;2023-10-08T00:38:43;101329.44;;;13.96;79.49
163;BME280;3946;48.958;8.284;2023-10-08T00:41:28;101331.41;;;13.92;79.59
163;BME280;3946;48.958;8.284;2023-10-08T00:44:15;101338.38;;;13.92;79.53
163;BME280;3946;48.958;8.284;2023-10-08T00:47:06;101342.00;;;13.89;79.35
163;BME280;3946;48.958;8.284;2023-10-08T00:49:54;101332.31;;;13.91;79.15
163;BME280;3946;48.958;8.284;2023-10-08T00:52:49;101332.13;;;13.80;79.29
163;BME280;3946;48.958;8.284;2023-10-08T00:55:43;101324.63;;;13.76;79.43
163;BME280;3946;48.958;8.284;2023-10-08T00:58:36;101315.31;;;13.72;79.11
163;BME280;3946;48.958;8.284;2023-10-08T01:01:21;101315.50;;;13.69;79.89
163;BME280;3946;48.958;8.284;2023-10-08T01:04:07;101317.44;;;13.65;79.95
163;BME280;3946;48.958;8.284;2023-10-08T01:06:56;101300.25;;;13.62;80.30
163;BME280;3946;48.958;8.284;2023-10-08T01:09:44;101309.94;;;13.60;80.26
163;BME280;3946;48.958;8.284;2023-10-08T01:12:34;101306.47;;;13.60;80.32
163;BME280;3946;48.958;8.284;2023-10-08T01:15:27;101304.91;;;13.57;80.64
163;BME280;3946;48.958;8.284;2023-10-08T01:18:16;101319.41;;;13.47;81.14
163;BME280;3946;48.958;8.284;2023-10-08T01:21:12;101309.28;;;13.43;80.92
163;BME280;3946;48.958;8.284;2023-10-08T01:24:14;101307.84;;;13.37;81.32
163;BME280;3946;48.958;8.284;2023-10-08T01:27:01;101311.88;;;13.28;81.63
163;BME280;3946;48.958;8.284;2023-10-08T01:29:48;101318.44;;;13.20;81.97
163;BME280;3946;48.958;8.284;2023-10-08T01:32:34;101329.44;;;13.09;82.72
163;BME280;3946;48.958;8.284;2023-10-08T01:35:20;101329.28;;;13.12;82.39
163;BME280;3946;48.958;8.284;2023-10-08T01:38:06;101336.94;;;13.00;82.23
163;BME280;3946;48.958;8.284;2023-10-08T01:40:54;101339.78;;;13.11;82.26
163;BME280;3946;48.958;8.284;2023-10-08T01:43:40;101340.16;;;12.89;82.78
163;BME280;3946;48.958;8.284;2023-10-08T01:46:25;101346.28;;;12.88;82.89
163;BME280;3946;48.958;8.284;2023-10-08T01:49:11;101342.09;;;12.85;83.30
163;BME280;3946;48.958;8.284;2023-10-08T01:51:59;101332.41;;;12.73;83.90
163;BME280;3946;48.958;8.284;2023-10-08T01:54:49;101335.53;;;12.64;84.28
163;BME280;3946;48.958;8.284;2023-10-08T01:57:39;101330.91;;;12.69;84.39
163;BME280;3946;48.958;8.284;2023-10-08T02:00:24;101317.78;;;12.86;83.06
163;BME280;3946;48.958;8.284;2023-10-08T02:03:11;101329.81;;;12.73;83.38
163;BME280;3946;48.958;8.284;2023-10-08T02:05:57;101317.06;;;12.69;83.59
163;BME280;3946;48.958;8.284;2023-10-08T02:08:43;101318.72;;;12.70;83.42
163;BME280;3946;48.958;8.284;2023-10-08T02:11:27;101322.09;;;12.72;83.37
163;BME280;3946;48.958;8.284;2023-10-08T02:14:13;101323.84;;;12.71;82.98
163;BME280;3946;48.958;8.284;2023-10-08T02:16:58;101319.03;;;12.65;83.18
163;BME280;3946;48.958;8.284;2023-10-08T02:19:47;101317.63;;;12.74;82.60
163;BME280;3946;48.958;8.284;2023-10-08T02:22:32;101315.03;;;12.74;82.64
163;BME280;3946;48.958;8.284;2023-10-08T02:25:17;101317.56;;;12.75;82.76
163;BME280;3946;48.958;8.284;2023-10-08T02:28:03;101317.81;;;12.71;82.56
163;BME280;3946;48.958;8.284;2023-10-08T02:30:49;101323.59;;;12.76;82.51
163;BME280;3946;48.958;8.284;2023-10-08T02:33:35;101317.63;;;12.74;82.49
163;BME280;3946;48.958;8.284;2023-10-08T02:36:20;101322.34;;;12.67;82.96
163;BME280;3946;48.958;8.284;2023-10-08T02:39:05;101324.84;;;12.69;83.03
163;BME280;3946;48.958;8.284;2023-10-08T02:41:57;101309.94;;;12.72;82.81
163;BME280;3946;48.958;8.284;2023-10-08T02:44:43;101309.09;;;12.72;82.52
163;BME280;3946;48.958;8.284;2023-10-08T02:47:30;101312.78;;;12.68;82.63
163;BME280;3946;48.958;8.284;2023-10-08T02:50:16;101318.09;;;12.66;82.64
163;BME280;3946;48.958;8.284;2023-10-08T02:53:01;101324.38;;;12.62;82.44
163;BME280;3946;48.958;8.284;2023-10-08T02:55:55;101323.47;;;12.63;82.47
163;BME280;3946;48.958;8.284;2023-10-08T02:58:40;101319.28;;;12.60;82.79
163;BME280;3946;48.958;8.284;2023-10-08T03:01:28;101323.63;;;12.60;82.29
163;BME280;3946;48.958;8.284;2023-10-08T03:04:19;101328.50;;;12.66;82.43
163;BME280;3946;48.958;8.284;2023-10-08T03:07:04;101327.16;;;12.59;82.56
163;BME280;3946;48.958;8.284;2023-10-08T03:09:55;101326.41;;;12.57;83.28
163;BME280;3946;48.958;8.284;2023-10-08T03:12:47;101330.53;;;12.45;83.46
163;BME280;3946;48.958;8.284;2023-10-08T03:15:34;101319.97;;;12.33;83.93
163;BME280;3946;48.958;8.284;2023-10-08T03:18:24;101329.09;;;12.40;83.97
163;BME280;3946;48.958;8.284;2023-10-08T03:21:10;101315.19;;;12.41;83.65
163;BME280;3946;48.958;8.284;2023-10-08T03:24:04;101313.34;;;12.43;83.23
163;BME280;3946;48.958;8.284;2023-10-08T03:26:56;101309.66;;;12.47;82.47
163;BME280;3946;48.958;8.284;2023-10-08T03:29:49;101314.50;;;12.53;82.06
163;BME280;3946;48.958;8.284;2023-10-08T03:32:38;101314.84;;;12.47;82.15
163;BME280;3946;48.958;8.284;2023-10-08T03:35:25;101317.84;;;12.55;81.16
163;BME280;3946;48.958;8.284;2023-10-08T03:38:15;101316.91;;;12.56;81.27
163;BME280;3946;48.958;8.284;2023-10-08T03:41:06;101314.75;;;12.64;80.87
163;BME280;3946;48.958;8.284;2023-10-08T03:43:52;101322.78;;;12.59;80.79
163;BME280;3946;48.958;8.284;2023-10-08T03:46:44;101316.16;;;12.54;81.15
163;BME280;3946;48.958;8.284;2023-10-08T03:49:31;101318.09;;;12.50;81.07
163;BME280;3946;48.958;8.284;2023-10-08T03:52:17;101322.38;;;12.51;80.92
163;BME280;3946;48.958;8.284;2023-10-08T03:55:04;101320.88;;;12.47;81.21
163;BME280;3946;48.958;8.284;2023-10-08T03:57:50;101329.78;;;12.27;82.39
163;BME280;3946;48.958;8.284;2023-10-08T04:00:42;101327.66;;;12.18;82.58
163;BME280;3946;48.958;8.284;2023-10-08T04:03:29;101325.19;;;12.17;82.60
163;BME280;3946;48.958;8.284;2023-10-08T04:06:34;101319.47;;;12.10;82.89
163;BME280;3946;48.958;8.284;2023-10-08T04:09:22;101316.88;;;12.10;82.84
163;BME280;3946;48.958;8.284;2023-10-08T04:12:10;101312.94;;;12.03;83.41
163;BME280;3946;48.958;8.284;2023-10-08T04:14:55;101315.28;;;12.08;83.10
163;BME280;3946;48.958;8.284;2023-10-08T04:17:40;101313.19;;;11.99;83.26
163;BME280;3946;48.958;8.284;2023-10-08T04:20:28;101311.75;;;11.93;83.69
163;BME280;3946;48.958;8.284;2023-10-08T04:23:17;101308.41;;;11.91;83.77
163;BME280;3946;48.958;8.284;2023-10-08T04:26:04;101305.47;;;11.81;84.34
163;BME280;3946;48.958;8.284;2023-10-08T04:28:55;101306.47;;;11.79;84.64
163;BME280;3946;48.958;8.284;2023-10-08T04:31:41;101296.50;;;11.87;84.31
163;BME280;3946;48.958;8.284;2023-10-08T04:34:30;101298.38;;;11.68;85.07
163;BME280;3946;48.958;8.284;2023-10-08T04:37:17;101308.09;;;11.64;84.82
163;BME280;3946;48.958;8.284;2023-10-08T04:40:04;101318.28;;;11.51;85.71
163;BME280;3946;48.958;8.284;2023-10-08T04:42:57;101304.50;;;11.67;84.99
163;BME280;3946;48.958;8.284;2023-10-08T04:45:47;101305.03;;;11.56;85.10
163;BME280;3946;48.958;8.284;2023-10-08T04:48:33;101304.63;;;11.48;85.64
163;BME280;3946;48.958;8.284;2023-10-08T04:51:20;101309.97;;;11.45;86.05
163;BME280;3946;48.958;8.284;2023-10-08T04:54:06;101309.88;;;11.46;85.51
163;BME280;3946;48.958;8.284;2023-10-08T04:56:52;101313.13;;;11.34;86.49
163;BME280;3946;48.958;8.284;2023-10-08T04:59:37;101324.56;;;11.30;85.96
163;BME280;3946;48.958;8.284;2023-10-08T05:02:24;101324.72;;;11.27;86.40
163;BME280;3946;48.958;8.284;2023-10-08T05:05:18;101326.47;;;11.27;86.52
163;BME280;3946;48.958;8.284;2023-10-08T05:08:06;101328.84;;;11.31;86.83
163;BME280;3946;48.958;8.284;2023-10-08T05:11:12;101324.09;;;11.22;87.00
163;BME280;3946;48.958;8.284;2023-10-08T05:14:08;101332.38;;;11.13;87.21
163;BME280;3946;48.958;8.284;2023-10-08T05:17:01;101335.06;;;11.44;86.70
163;BME280;3946;48.958;8.284;2023-10-08T05:19:49;101332.34;;;11.30;86.65
163;BME280;3946;48.958;8.284;2023-10-08T05:23:01;101339.38;;;11.28;87.04
163;BME280;3946;48.958;8.284;2023-10-08T05:26:02;101339.97;;;11.33;87.25
163;BME280;3946;48.958;8.284;2023-10-08T05:28:52;101333.63;;;11.39;87.04
163;BME280;3946;48.958;8.284;2023-10-08T05:31:45;101341.34;;;11.40;87.05
163;BME280;3946;48.958;8.284;2023-10-08T05:34:37;101337.06;;;11.39;87.60
163;BME280;3946;48.958;8.284;2023-10-08T05:37:36;101338.66;;;11.42;87.77
163;BME280;3946;48.958;8.284;2023-10-08T05:40:26;101341.19;;;11.43;87.87
163;BME280;3946;48.958;8.284;2023-10-08T05:43:37;101341.03;;;11.46;88.23
163;BME280;3946;48.958;8.284;2023-10-08T05:46:57;101334.50;;;11.55;88.48
163;BME280;3946;48.958;8.284;2023-10-08T05:50:10;101340.66;;;11.70;87.62
163;BME280;3946;48.958;8.284;2023-10-08T05:53:10;101329.28;;;11.72;87.46
163;BME280;3946;48.958;8.284;2023-10-08T05:56:13;101338.91;;;11.70;88.53
163;BME280;3946;48.958;8.284;2023-10-08T05:59:12;101338.47;;;11.79;87.55
163;BME280;3946;48.958;8.284;2023-10-08T06:02:02;101343.09;;;11.73;87.62
163;BME280;3946;48.958;8.284;2023-10-08T06:05:03;101333.56;;;11.73;88.24
163;BME280;3946;48.958;8.284;2023-10-08T06:08:04;101329.53;;;11.68;88.56
163;BME280;3946;48.958;8.284;2023-10-08T06:10:57;101342.75;;;11.63;89.10
163;BME280;3946;48.958;8.284;2023-10-08T06:13:44;101330.84;;;11.76;89.10
163;BME280;3946;48.958;8.284;2023-10-08T06:16:34;101331.00;;;11.89;88.67
163;BME280;3946;48.958;8.284;2023-10-08T06:19:27;101329.84;;;11.95;88.26
163;BME280;3946;48.958;8.284;2023-10-08T06:22:11;101323.91;;;11.93;88.54
163;BME280;3946;48.958;8.284;2023-10-08T06:24:56;101322.31;;;11.90;88.94
163;BME280;3946;48.958;8.284;2023-10-08T06:28:02;101319.47;;;11.95;88.99
163;BME280;3946;48.958;8.284;2023-10-08T06:30:48;101329.69;;;11.98;88.70
163;BME280;3946;48.958;8.284;2023-10-08T06:33:33;101329.28;;;12.05;88.84
163;BME280;3946;48.958;8.284;2023-10-08T06:36:18;101325.75;;;12.06;88.56
163;BME280;3946;48.958;8.284;2023-10-08T06:39:07;101327.88;;;12.15;88.09
163;BME280;3946;48.958;8.284;2023-10-08T06:41:56;101337.59;;;12.27;87.35
163;BME280;3946;48.958;8.284;2023-10-08T06:44:47;101335.81;;;12.28;87.78
163;BME280;3946;48.958;8.284;2023-10-08T06:47:33;101347.72;;;12.32;87.67
163;BME280;3946;48.958;8.284;2023-10-08T06:50:18;101347.28;;;12.55;86.22
163;BME280;3946;48.958;8.284;2023-10-08T06:53:05;101354.81;;;12.60;86.69
163;BME280;3946;48.958;8.284;2023-10-08T06:55:51;101358.94;;;12.64;86.71
163;BME280;3946;48.958;8.284;2023-10-08T06:58:40;101356.31;;;12.80;86.95
163;BME280;3946;48.958;8.284;2023-10-08T07:01:30;101355.19;;;12.84;86.73
163;BME280;3946;48.958;8.284;2023-10-08T07:04:22;101364.38;;;12.75;87.37
163;BME280;3946;48.958;8.284;2023-10-08T07:07:07;101365.31;;;13.04;86.82
163;BME280;3946;48.958;8.284;2023-10-08T07:09:53;101371.50;;;13.02;86.91
163;BME280;3946;48.958;8.284;2023-10-08T07:12:40;101378.03;;;13.24;85.86
163;BME280;3946;48.958;8.284;2023-10-08T07:15:26;101375.44;;;13.24;86.10
163;BME280;3946;48.958;8.284;2023-10-08T07:18:12;101385.75;;;13.26;86.64
163;BME280;3946;48.958;8.284;2023-10-08T07:20:58;101406.53;;;13.56;86.38
163;BME280;3946;48.958;8.284;2023-10-08T07:23:45;101399.41;;;13.74;85.11
163;BME280;3946;48.958;8.284;2023-10-08T07:26:40;101400.81;;;13.79;84.39
163;BME280;3946;48.958;8.284;2023-10-08T07:29:30;101396.13;;;13.98;84.52
163;BME280;3946;48.958;8.284;2023-10-08T07:32:16;101399.88;;;14.09;84.50
163;BME280;3946;48.958;8.284;2023-10-08T07:35:04;101400.03;;;14.20;84.74
163;BME280;3946;48.958;8.284;2023-10-08T07:38:07;101387.28;;;14.44;83.80
163;BME280;3946;48.958;8.284;2023-10-08T07:40:53;101378.44;;;14.73;82.42
163;BME280;3946;48.958;8.284;2023-10-08T07:43:39;101372.09;;;14.77;82.12
163;BME280;3946;48.958;8.284;2023-10-08T07:46:24;101371.97;;;14.79;82.07
163;BME280;3946;48.958;8.284;2023-10-08T07:49:09;101367.22;;;14.98;81.22
163;BME280;3946;48.958;8.284;2023-10-08T07:51:59;101366.81;;;15.04;80.10
163;BME280;3946;48.958;8.284;2023-10-08T07:54:44;101356.22;;;15.32;79.84
163;BME280;3946;48.958;8.284;2023-10-08T07:57:29;101360.19;;;15.38;79.23
163;BME280;3946;48.958;8.284;2023-10-08T08:00:15;101360.91;;;15.27;79.23
163;BME280;3946;48.958;8.284;2023-10-08T08:03:06;101369.16;;;15.47;77.54
163;BME280;3946;48.958;8.284;2023-10-08T08:05:51;101367.44;;;15.72;76.65
163;BME280;3946;48.958;8.284;2023-10-08T08:08:38;101371.06;;;15.95;75.89
163;BME280;3946;48.958;8.284;2023-10-08T08:11:24;101372.69;;;16.22;74.94
163;BME280;3946;48.958;8.284;2023-10-08T08:14:09;101374.22;;;16.37;73.48
163;BME280;3946;48.958;8.284;2023-10-08T08:16:54;101386.59;;;16.09;74.01
163;BME280;3946;48.958;8.284;2023-10-08T08:19:39;101393.09;;;16.53;73.68
163;BME280;3946;48.958;8.284;2023-10-08T08:22:25;101381.38;;;16.83;72.23
163;BME280;3946;48.958;8.284;2023-10-08T08:25:16;101383.16;;;16.82;72.28
163;BME280;3946;48.958;8.284;2023-10-08T08:28:10;101383.47;;;16.77;72.84
163;BME280;3946;48.958;8.284;2023-10-08T08:31:04;101392.38;;;16.99;72.53
163;BME280;3946;48.958;8.284;2023-10-08T08:33:57;101395.63;;;17.02;71.75
163;BME280;3946;48.958;8.284;2023-10-08T08:36:43;101385.81;;;17.39;70.79
163;BME280;3946;48.958;8.284;2023-10-08T08:39:31;101394.78;;;17.48;70.71
163;BME280;3946;48.958;8.284;2023-10-08T08:42:19;101384.34;;;17.70;70.54
163;BME280;3946;48.958;8.284;2023-10-08T08:45:06;101379.13;;;17.81;70.04
163;BME280;3946;48.958;8.284;2023-10-08T08:47:54;101394.16;;;17.33;71.47
163;BME280;3946;48.958;8.284;2023-10-08T08:50:41;101387.13;;;17.69;70.83
163;BME280;3946;48.958;8.284;2023-10-08T08:53:26;101383.31;;;17.84;70.39
163;BME280;3946;48.958;8.284;2023-10-08T08:56:12;101386.97;;;18.04;69.95
163;BME280;3946;48.958;8.284;2023-10-08T08:59:00;101394.50;;;17.97;68.75
163;BME280;3946;48.958;8.284;2023-10-08T09:01:45;101388.06;;;18.01;69.04
163;BME280;3946;48.958;8.284;2023-10-08T09:04:31;101393.91;;;17.82;69.54
163;BME280;3946;48.958;8.284;2023-10-08T09:07:19;101389.00;;;18.11;69.29
163;BME280;3946;48.958;8.284;2023-10-08T09:10:05;101387.81;;;18.04;69.55
163;BME280;3946;48.958;8.284;2023-10-08T09:12:56;101395.19;;;18.33;69.36
163;BME280;3946;48.958;8.284;2023-10-08T09:15:43;101380.34;;;18.54;68.25
163;BME280;3946;48.958;8.284;2023-10-08T09:18:29;101379.34;;;18.77;67.82
163;BME280;3946;48.958;8.284;2023-10-08T09:21:16;101378.69;;;18.85;67.98
163;BME280;3946;48.958;8.284;2023-10-08T09:24:03;101368.06;;;18.86;66.95
163;BME280;3946;48.958;8.284;2023-10-08T09:26:52;101366.50;;;19.16;67.32
163;BME280;3946;48.958;8.284;2023-10-08T09:29:39;101350.28;;;19.32;66.68
163;BME280;3946;48.958;8.284;2023-10-08T09:32:26;101351.75;;;19.25;66.26
163;BME280;3946;48.958;8.284;2023-10-08T09:35:11;101340.16;;;19.27;66.09
163;BME280;3946;48.958;8.284;2023-10-08T09:37:57;101352.09;;;19.10;66.04
163;BME280;3946;48.958;8.284;2023-10-08T09:40:42;101337.66;;;19.46;64.38
163;BME280;3946;48.958;8.284;2023-10-08T09:43:27;101342.38;;;19.52;64.21
163;BME280;3946;48.958;8.284;2023-10-08T09:46:14;101340.53;;;19.64;64.60
163;BME280;3946;48.958;8.284;2023-10-08T09:49:02;101346.34;;;19.68;64.58
163;BME280;3946;48.958;8.284;2023-10-08T09:51:50;101340.94;;;19.48;63.83
163;BME280;3946;48.958;8.284;2023-10-08T09:54:37;101341.41;;;19.84;64.15
163;BME280;3946;48.958;8.284;2023-10-08T09:57:26;101330.13;;;20.03;62.64
163;BME280;3946;48.958;8.284;2023-10-08T10:00:11;101339.28;;;20.18;63.09
163;BME280;3946;48.958;8.284;2023-10-08T10:02:58;101332.94;;;20.20;61.76
163;BME280;3946;48.958;8.284;2023-10-08T10:05:47;101330.22;;;20.51;61.35
163;BME280;3946;48.958;8.284;2023-10-08T10:08:32;101334.50;;;21.00;60.69
163;BME280;3946;48.958;8.284;2023-10-08T10:11:19;101337.72;;;20.94;60.61
163;BME280;3946;48.958;8.284;2023-10-08T10:14:04;101333.97;;;20.87;60.58
163;BME280;3946;48.958;8.284;2023-10-08T10:17:05;101332.00;;;20.99;61.11
163;BME280;3946;48.958;8.284;2023-10-08T10:19:53;101332.97;;;21.07;60.88
163;BME280;3946;48.958;8.284;2023-10-08T10:22:40;101355.44;;;21.02;62.46
163;BME280;3946;48.958;8.284;2023-10-08T10:25:33;101332.16;;;21.26;59.80
163;BME280;3946;48.958;8.284;2023-10-08T10:28:23;101336.84;;;21.69;60.46
163;BME280;3946;48.958;8.284;2023-10-08T10:31:15;101337.97;;;21.20;60.80
163;BME280;3946;48.958;8.284;2023-10-08T10:34:04;101336.97;;;21.40;60.93
163;BME280;3946;48.958;8.284;2023-10-08T10:36:52;101334.13;;;21.51;60.78
163;BME280;3946;48.958;8.284;2023-10-08T10:39:49;101317.47;;;21.88;59.81
163;BME280;3946;48.958;8.284;2023-10-08T10:42:37;101316.56;;;22.07;59.19
163;BME280;3946;48.958;8.284;2023-10-08T10:45:28;101315.59;;;22.08;59.35
163;BME280;3946;48.958;8.284;2023-10-08T10:48:24;101321.38;;;22.11;59.39
163;BME280;3946;48.958;8.284;2023-10-08T10:51:18;101324.13;;;22.19;59.09
163;BME280;3946;48.958;8.284;2023-10-08T10:54:03;101324.91;;;22.02;59.84
163;BME280;3946;48.958;8.284;2023-10-08T10:56:54;101321.69;;;21.98;59.61
163;BME280;3946;48.958;8.284;2023-10-08T10:59:49;101325.53;;;21.86;59.72
163;BME280;3946;48.958;8.284;2023-10-08T11:02:37;101324.41;;;21.89;60.79
163;BME280;3946;48.958;8.284;2023-10-08T11:05:26;101303.97;;;22.18;59.26
163;BME280;3946;48.958;8.284;2023-10-08T11:08:13;101306.53;;;22.46;59.50
163;BME280;3946;48.958;8.284;2023-10-08T11:10:59;101307.22;;;22.65;59.87
163;BME280;3946;48.958;8.284;2023-10-08T11:13:50;101286.78;;;22.76;58.90
163;BME280;3946;48.958;8.284;2023-10-08T11:16:38;101273.16;;;22.80;58.47
163;BME280;3946;48.958;8.284;2023-10-08T11:19:23;101274.22;;;22.87;57.88
163;BME280;3946;48.958;8.284;2023-10-08T11:22:11;101255.06;;;22.93;57.08
163;BME280;3946;48.958;8.284;2023-10-08T11:25:00;101262.81;;;22.87;57.16
163;BME280;3946;48.958;8.284;2023-10-08T11:27:50;101257.72;;;22.76;57.71
163;BME280;3946;48.958;8.284;2023-10-08T11:30:44;101256.00;;;23.10;57.06
163;BME280;3946;48.958;8.284;2023-10-08T11:33:30;101259.59;;;23.01;56.67
163;BME280;3946;48.958;8.284;2023-10-08T11:36:16;101253.03;;;23.05;56.82
163;BME280;3946;48.958;8.284;2023-10-08T11:39:08;101268.81;;;22.97;57.73
163;BME280;3946;48.958;8.284;2023-10-08T11:41:56;101264.31;;;22.72;58.29
163;BME280;3946;48.958;8.284;2023-10-08T11:44:41;101262.47;;;22.90;57.53
163;BME280;3946;48.958;8.284;2023-10-08T11:47:28;101249.19;;;22.99;57.03
163;BME280;3946;48.958;8.284;2023-10-08T11:50:19;101242.94;;;23.09;55.82
163;BME280;3946;48.958;8.284;2023-10-08T11:53:04;101253.31;;;23.02;57.30
163;BME280;3946;48.958;8.284;2023-10-08T11:55:50;101253.25;;;23.20;56.33
163;BME280;3946;48.958;8.284;2023-10-08T11:58:40;101243.66;;;23.19;56.87
163;BME280;3946;48.958;8.284;2023-10-08T12:01:28;101241.78;;;23.45;55.90
163;BME280;3946;48.958;8.284;2023-10-08T12:04:14;101238.69;;;23.50;55.03
163;BME280;3946;48.958;8.284;2023-10-08T12:07:00;101241.78;;;23.45;56.41
163;BME280;3946;48.958;8.284;2023-10-08T12:09:50;101244.38;;;23.63;56.53
163;BME280;3946;48.958;8.284;2023-10-08T12:12:38;101221.19;;;23.57;54.88
163;BME280;3946;48.958;8.284;2023-10-08T12:15:24;101233.09;;;23.53;55.15
163;BME280;3946;48.958;8.284;2023-10-08T12:18:18;101232.03;;;23.46;55.99
163;BME280;3946;48.958;8.284;2023-10-08T12:21:09;101222.19;;;23.56;55.63
163;BME280;3946;48.958;8.284;2023-10-08T12:23:55;101219.06;;;23.60;55.54
163;BME280;3946;48.958;8.284;2023-10-08T12:26:40;101227.81;;;23.61;56.07
163;BME280;3946;48.958;8.284;2023-10-08T12:29:29;101223.72;;;23.66;56.02
163;BME280;3946;48.958;8.284;2023-10-08T12:32:16;101228.91;;;24.00;56.64
163;BME280;3946;48.958;8.284;2023-10-08T12:35:03;101225.06;;;23.87;55.28
163;BME280;3946;48.958;8.284;2023-10-08T12:37:49;101210.22;;;24.10;54.90
163;BME280;3946;48.958;8.284;2023-10-08T12:40:34;101215.97;;;23.89;55.48
163;BME280;3946;48.958;8.284;2023-10-08T12:43:31;101216.50;;;23.85;55.52
163;BME280;3946;48.958;8.284;2023-10-08T12:46:20;101225.94;;;24.20;56.33
163;BME280;3946;48.958;8.284;2023-10-08T12:49:07;101202.31;;;24.34;54.09
163;BME280;3946;48.958;8.284;2023-10-08T12:51:52;101201.25;;;24.03;54.53
163;BME280;3946;48.958;8.284;2023-10-08T12:54:38;101197.13;;;24.08;54.34
163;BME280;3946;48.958;8.284;2023-10-08T12:57:28;101202.63;;;24.23;55.65
163;BME280;3946;48.958;8.284;2023-10-08T13:00:17;101181.94;;;24.19;54.56
163;BME280;3946;48.958;8.284;2023-10-08T13:03:06;101175.66;;;24.44;53.67
163;BME280;3946;48.958;8.284;2023-10-08T13:05:59;101183.75;;;24.42;55.41
163;BME280;3946;48.958;8.284;2023-10-08T13:08:48;101166.00;;;24.67;54.17
163;BME280;3946;48.958;8.284;2023-10-08T13:11:37;101169.84;;;24.40;54.22
163;BME280;3946;48.958;8.284;2023-10-08T13:14:23;101180.75;;;24.54;54.86
163;BME280;3946;48.958;8.284;2023-10-08T13:17:08;101181.66;;;24.85;54.97
163;BME280;3946;48.958;8.284;2023-10-08T13:19:54;101162.13;;;24.86;54.11
163;BME280;3946;48.958;8.284;2023-10-08T13:22:39;101166.91;;;24.91;54.53
163;BME280;3946;48.958;8.284;2023-10-08T13:25:24;101169.25;;;24.86;54.12
163;BME280;3946;48.958;8.284;2023-10-08T13:28:11;101177.34;;;24.92;54.23
163;BME280;3946;48.958;8.284;2023-10-08T13:30:56;101172.53;;;25.04;54.28
163;BME280;3946;48.958;8.284;2023-10-08T13:33:42;101167.41;;;25.02;53.61
163;BME280;3946;48.958;8.284;2023-10-08T13:36:28;101170.81;;;25.19;53.29
163;BME280;3946;48.958;8.284;2023-10-08T13:39:13;101159.38;;;25.19;52.62
163;BME280;3946;48.958;8.284;2023-10-08T13:42:02;101168.53;;;25.16;53.89
163;BME280;3946;48.958;8.284;2023-10-08T13:44:48;101144.69;;;25.39;52.06
163;BME280;3946;48.958;8.284;2023-10-08T13:47:33;101159.59;;;25.40;52.77
163;BME280;3946;48.958;8.284;2023-10-08T13:50:18;101143.25;;;25.28;53.14
163;BME280;3946;48.958;8.284;2023-10-08T13:53:05;101155.03;;;25.26;53.04
163;BME280;3946;48.958;8.284;2023-10-08T13:55:51;101158.75;;;25.08;53.79
163;BME280;3946;48.958;8.284;2023-10-08T13:58:36;101154.44;;;25.16;53.67
163;BME280;3946;48.958;8.284;2023-10-08T14:01:26;101168.72;;;25.06;54.92
163;BME280;3946;48.958;8.284;2023-10-08T14:04:11;101162.84;;;25.19;54.22
163;BME280;3946;48.958;8.284;2023-10-08T14:07:01;101161.44;;;24.92;54.14
163;BME280;3946;48.958;8.284;2023-10-08T14:09:48;101161.78;;;24.89;54.06
163;BME280;3946;48.958;8.284;2023-10-08T14:12:34;101148.31;;;25.15;53.28
163;BME280;3946;48.958;8.284;2023-10-08T14:15:19;101158.97;;;24.91;54.23
163;BME280;3946;48.958;8.284;2023-10-08T14:18:08;101150.38;;;24.81;54.19
163;BME280;3946;48.958;8.284;2023-10-08T14:20:55;101142.50;;;24.56;54.31
163;BME280;3946;48.958;8.284;2023-10-08T14:23:40;101147.13;;;24.62;55.09
163;BME280;3946;48.958;8.284;2023-10-08T14:26:25;101132.88;;;24.63;54.25
163;BME280;3946;48.958;8.284;2023-10-08T14:29:18;101137.22;;;24.48;54.83
163;BME280;3946;48.958;8.284;2023-10-08T14:32:04;101129.59;;;24.45;54.22
163;BME280;3946;48.958;8.284;2023-10-08T14:34:53;101155.78;;;24.48;55.92
163;BME280;3946;48.958;8.284;2023-10-08T14:37:56;101139.72;;;24.41;54.98
163;BME280;3946;48.958;8.284;2023-10-08T14:41:01;101148.66;;;24.32;55.41
163;BME280;3946;48.958;8.284;2023-10-08T14:44:03;101127.25;;;24.58;54.67
163;BME280;3946;48.958;8.284;2023-10-08T14:46:50;101130.22;;;24.63;54.46
163;BME280;3946;48.958;8.284;2023-10-08T14:49:38;101165.84;;;24.04;57.40
163;BME280;3946;48.958;8.284;2023-10-08T14:52:24;101147.00;;;24.23;56.67
163;BME280;3946;48.958;8.284;2023-10-08T14:55:10;101150.31;;;24.01;56.30
163;BME280;3946;48.958;8.284;2023-10-08T14:57:55;101145.84;;;23.85;56.38
163;BME280;3946;48.958;8.284;2023-10-08T15:00:40;101136.25;;;24.00;56.04
163;BME280;3946;48.958;8.284;2023-10-08T15:03:25;101137.72;;;23.95;56.55
163;BME280;3946;48.958;8.284;2023-10-08T15:06:11;101143.19;;;23.85;57.54
163;BME280;3946;48.958;8.284;2023-10-08T15:08:58;101124.16;;;23.98;55.81
163;BME280;3946;48.958;8.284;2023-10-08T15:11:42;101119.19;;;24.11;55.73
163;BME280;3946;48.958;8.284;2023-10-08T15:14:29;101123.34;;;23.97;55.94
163;BME280;3946;48.958;8.284;2023-10-08T15:17:15;101133.59;;;23.92;56.41
163;BME280;3946;48.958;8.284;2023-10-08T15:20:01;101121.16;;;23.77;56.24